Main page
METAR-TAF:

METAR-TAF

Airports :

Clinton-Sherman Industrial Airpark

Clinton / Burns Flat, Oklahoma, United States

latitude: 35-21-24N, longitude: 099-12-13W, elevation: 1919 ft

Current weather observation

The report was made 26 minutes ago, at 19:53 UTC
Wind 9 mph from the Northeast with gusts up to 20 mph, varying between North and East/Northeast
Temperature 66°F
Humidity 34%
Pressure 30.35 in. Hg
Visibility: 10 miles
Clear sky

METAR: KCSM 201953Z AUTO 05008G17KT 010V070 10SM CLR 19/03 A3035 RMK AO2 SLP268 T01940033

Time: 15:19 (20:19 UTC)

Forecast

The report was made 2 hours and 59 minutes ago, at 17:20 UTC
Forecast valid from 20 at 18 UTC to 21 at 18 UTC
Wind 12 mph from the East
Visibility: 6 miles
Clear sky
From 21 at 1000 UTC
Wind 14 mph from the South
Visibility: 6 miles
Scattered clouds at a height of 25000 ft

TAF: KCSM 201720Z 2018/2118 08010KT P6SM SKC FM211000 17012KT P6SM SCT250

Weather observations and forecasts of more than 4000 airports (METAR and TAF reports).

The available stations are represented by yellow and red dots on the map.

Hover mouse over dot to see the name of the station.

Then click to see weather observations and forecasts.

To change the map : click on the green buttons with a black cross to zoom in, on the green button with a dash to zoom out, or on the green arrows for adjacent maps.


METAR-TAF: